Airfield :
LOGIN :

Register | Disclaimer

   EN    FR    IT 

 










Legend :    VFR   Marginal VFR   IFR   Intensive IFR   Very Intensive IFR
Visi :
Ceiling :
>= 8 km
>= 3000ft
5 to 8 km
1000 to 3000 ft
1500m to 5 km
500 to 1000 ft
800 to 1500m
200 to 500 ft
< 800m
< 200 ft
Symbols :   Thunderstorms  Fog  Heavy snow  Heavy precipitations  Wind > 20 kt
SIGMETs :     Misc.  Thunderstorms  Icing  Turbulence  Mountain Waves  Volcanic Ashes







- Airport Elevation : 25 ft
- IATA code : QCY


EGXC - RAF Coningsby

CURRENT METAR :
  • 200150Z 23008KT 9999 -RA FEW050 OVC060 14/08 Q1011 BLU

EXPIRED METARs :
  • 200050Z 22012KT CAVOK 14/08 Q1011 BLU
  • 192350Z 23010KT CAVOK 14/07 Q1011 BLU

TAF TAF EGXC
Valid from the 20 at 00:00 until the 20 at 18:00 UTC


192232Z 2000/2018 23012KT 9999 BKN040
TEMPO 2000/2006 7000 -RA BKN018
TEMPO 2006/2015 4000 +RA BKN008
PROB30
TEMPO 2007/2013 2500 RADZ SCT005
BECMG 2013/2015 19018G28KT
No reported NOTAMs for that airfield.
2 SIGMETs reported for the London FIR (EGTT) :
 
Severe turbulence
EGTT SIGMET 02 VALID 200100/200500 EGRR
EGTT LONDON FIR SEV TURB FCST WI N5500 E00000 - N5418 W00223 - N5500 W00530 - N5500 E00000 SFC/FL060 MOV N 05KT WKN=
Severe mountain waves
EGTT SIGMET 01 VALID 200100/200500 EGRR
EGTT LONDON FIR SEV MTW FCST WI N5500 E00020 - N5416 E00049 - N5314 W00250 - N5500 W00530 - N5500 E00020 FL030/250 MOV N 10KT WKN=



MET'MAP, your aeronautical weather chart ! - Copyright ORBIFLY December 2007 - Disclaimer

ORBIFLY MET'MAP TEAM :

Programming & Development : Alexandra Zaïnal
Concept & Development : Baudouin d'Aumeries
Co-Development & Prog : Marc-Olivier Méhu
Technical & hardware support : Manuel Goepfert

Contact : metmap@orbifly.com




SOURCES & CREDITS :

   NOAA